Time;durP1;ratioP1;P1;durP2;ratioP2;P2;SDS_P1;SDS_P2;PMS_P1;PMS_P2;Temp;Humidity;BMP_temperature;BMP_pressure;BME280_temperature;BME280_humidity;BME280_pressure;Samples;Min_cycle;Max_cycle;Signal;HPM_P1;HPM_P2
2021/05/10 00:01:01;;;;;;;2.83;2.00;;;11.70;52.70;;;;;;5014098;28;20030;-75
2021/05/10 00:03:28;;;;;;;2.58;1.90;;;11.70;52.60;;;;;;5014346;28;20038;-75
2021/05/10 00:05:54;;;;;;;2.25;1.98;;;11.70;52.60;;;;;;5015216;28;20038;-74
2021/05/10 00:08:22;;;;;;;1.98;1.80;;;11.70;52.70;;;;;;5014296;28;20033;-76
2021/05/10 00:10:49;;;;;;;2.90;1.95;;;11.70;52.70;;;;;;5015175;28;20065;-76
2021/05/10 00:13:18;;;;;;;2.97;2.40;;;11.60;52.70;;;;;;5014048;28;20069;-76
2021/05/10 00:15:47;;;;;;;2.53;2.25;;;11.70;52.70;;;;;;5014118;28;20069;-77
2021/05/10 00:18:14;;;;;;;3.17;2.00;;;11.70;52.70;;;;;;5015356;28;20494;-77
2021/05/10 00:20:42;;;;;;;2.00;1.83;;;11.60;52.50;;;;;;5014036;28;20038;-77
2021/05/10 00:23:09;;;;;;;2.88;2.58;;;11.60;52.40;;;;;;5015260;28;20057;-75
2021/05/10 00:25:36;;;;;;;2.95;2.08;;;11.60;52.40;;;;;;5013931;28;20614;-77
2021/05/10 00:28:03;;;;;;;1.98;1.85;;;11.60;52.40;;;;;;5014025;28;20041;-76
2021/05/10 00:30:31;;;;;;;2.17;1.90;;;11.60;52.40;;;;;;5013769;28;20025;-78
2021/05/10 00:32:58;;;;;;;3.50;2.17;;;11.60;52.40;;;;;;5013820;28;20042;-79
2021/05/10 00:35:25;;;;;;;2.22;2.03;;;11.60;52.40;;;;;;5013700;28;20561;-74
2021/05/10 00:37:51;;;;;;;2.58;2.20;;;11.50;52.40;;;;;;5014038;28;20057;-75
2021/05/10 00:40:23;;;;;;;3.00;2.33;;;11.50;52.40;;;;;;5014350;28;20041;-77
2021/05/10 00:42:49;;;;;;;2.75;2.28;;;11.50;52.50;;;;;;5013676;28;20030;-79
2021/05/10 00:45:16;;;;;;;4.25;2.00;;;11.50;52.40;;;;;;5012717;28;20029;-76
2021/05/10 00:47:42;;;;;;;2.60;2.20;;;11.50;52.40;;;;;;5015123;28;20505;-76
2021/05/10 00:50:10;;;;;;;2.30;1.98;;;11.50;52.40;;;;;;5013398;28;20073;-76
2021/05/10 00:52:37;;;;;;;3.15;2.10;;;11.50;52.50;;;;;;5013630;28;20045;-75
2021/05/10 00:55:06;;;;;;;2.08;1.73;;;11.50;52.40;;;;;;5013717;28;20041;-77
2021/05/10 00:57:36;;;;;;;2.28;1.77;;;11.50;52.40;;;;;;5013553;28;20045;-78
2021/05/10 01:00:05;;;;;;;2.38;2.10;;;11.40;52.30;;;;;;5015050;28;20049;-77
2021/05/10 01:02:31;;;;;;;1.92;1.80;;;11.40;52.40;;;;;;5013323;28;20605;-75
2021/05/10 01:04:57;;;;;;;2.35;1.88;;;11.40;52.20;;;;;;5013876;28;20120;-77
2021/05/10 01:07:23;;;;;;;2.30;2.10;;;11.40;52.20;;;;;;5013261;28;20414;-78
2021/05/10 01:09:49;;;;;;;2.35;2.13;;;11.40;52.20;;;;;;5014377;28;20041;-78
2021/05/10 01:12:15;;;;;;;2.33;2.08;;;11.40;52.30;;;;;;5012802;28;20072;-77
2021/05/10 01:14:41;;;;;;;2.78;2.10;;;11.30;52.20;;;;;;5014213;28;20518;-78
2021/05/10 01:17:07;;;;;;;2.95;2.42;;;11.30;52.30;;;;;;5014606;28;20065;-77
2021/05/10 01:19:35;;;;;;;6.03;2.40;;;11.30;52.30;;;;;;5014408;28;20060;-77
2021/05/10 01:22:04;;;;;;;2.95;2.38;;;11.30;52.30;;;;;;5014088;28;20038;-78
2021/05/10 01:24:31;;;;;;;2.10;1.90;;;11.30;52.20;;;;;;5013196;28;20037;-77
2021/05/10 01:26:58;;;;;;;3.03;2.25;;;11.30;52.10;;;;;;5012944;28;20481;-77
2021/05/10 01:29:24;;;;;;;3.22;2.33;;;11.30;52.10;;;;;;5012597;28;20038;-79
2021/05/10 01:31:50;;;;;;;2.30;2.10;;;11.30;52.10;;;;;;5012470;28;20033;-76
2021/05/10 01:34:20;;;;;;;2.40;2.20;;;11.30;52.00;;;;;;5012521;28;20038;-77
2021/05/10 01:36:46;;;;;;;2.17;1.98;;;11.30;52.00;;;;;;5013990;28;20030;-78
2021/05/10 01:39:12;;;;;;;3.78;1.95;;;11.20;52.10;;;;;;5028263;28;20118;-78
2021/05/10 01:41:38;;;;;;;3.53;2.08;;;11.20;52.10;;;;;;5015867;28;20094;-78
2021/05/10 01:44:04;;;;;;;2.40;2.00;;;11.20;52.10;;;;;;4999432;28;20124;-77
2021/05/10 01:46:30;;;;;;;2.33;2.05;;;11.20;52.00;;;;;;5033353;28;20045;-78
2021/05/10 01:48:56;;;;;;;2.10;1.73;;;11.20;51.90;;;;;;5033517;28;20050;-78
2021/05/10 01:51:26;;;;;;;2.40;2.10;;;11.20;52.00;;;;;;5028179;28;20025;-77
2021/05/10 01:53:53;;;;;;;3.97;2.00;;;11.20;51.90;;;;;;5039898;28;20083;-77
2021/05/10 01:56:19;;;;;;;3.40;1.67;;;11.20;52.00;;;;;;5048788;28;20386;-79
2021/05/10 01:58:53;;;;;;;2.97;2.05;;;11.20;51.90;;;;;;4996825;28;20108;-76
2021/05/10 02:01:21;;;;;;;2.47;2.05;;;11.20;51.90;;;;;;5003749;28;20452;-77
2021/05/10 02:03:48;;;;;;;2.22;1.85;;;11.20;51.90;;;;;;5048487;28;20048;-78
2021/05/10 02:06:14;;;;;;;2.45;2.10;;;11.20;51.80;;;;;;5049771;28;20071;-77
2021/05/10 02:08:41;;;;;;;1.88;1.77;;;11.20;51.80;;;;;;5048774;28;20405;-79
2021/05/10 02:11:07;;;;;;;1.92;1.70;;;11.30;51.90;;;;;;5015022;28;20143;-78
2021/05/10 02:13:33;;;;;;;2.30;1.90;;;11.40;51.80;;;;;;5032976;28;20039;-78
2021/05/10 02:16:02;;;;;;;4.55;1.95;;;11.60;51.60;;;;;;5048053;28;20040;-79
2021/05/10 02:18:34;;;;;;;2.08;1.88;;;11.90;51.40;;;;;;5033281;28;20094;-79
2021/05/10 02:21:01;;;;;;;2.08;1.88;;;12.10;51.00;;;;;;5031342;28;20038;-77
2021/05/10 02:23:30;;;;;;;2.60;2.40;;;12.40;50.60;;;;;;5015397;28;20128;-76
2021/05/10 02:25:57;;;;;;;2.30;2.10;;;12.60;50.20;;;;;;5014980;28;20037;-78
2021/05/10 02:28:26;;;;;;;2.85;2.45;;;12.90;49.90;;;;;;5015540;28;20489;-76
2021/05/10 02:30:54;;;;;;;2.55;2.35;;;13.10;49.10;;;;;;5032616;28;20041;-76
2021/05/10 02:33:23;;;;;;;2.47;2.28;;;13.40;48.90;;;;;;5033153;28;20038;-78
2021/05/10 02:35:51;;;;;;;2.90;2.20;;;13.80;48.10;;;;;;5015683;28;20045;-79
2021/05/10 02:38:18;;;;;;;4.38;2.15;;;14.20;47.50;;;;;;5034054;28;20523;-76
2021/05/10 02:40:46;;;;;;;2.00;1.80;;;14.60;46.80;;;;;;5031868;28;20029;-79
2021/05/10 02:43:14;;;;;;;3.40;1.63;;;14.90;46.20;;;;;;5031414;28;20033;-78
2021/05/10 02:45:40;;;;;;;3.13;1.92;;;15.10;45.70;;;;;;5047972;28;20048;-77
2021/05/10 02:48:07;;;;;;;3.03;1.85;;;15.20;45.60;;;;;;5032781;28;20037;-79
2021/05/10 02:50:33;;;;;;;2.15;1.80;;;15.20;45.60;;;;;;5033207;28;20038;-79
2021/05/10 02:53:00;;;;;;;3.20;1.75;;;15.10;45.80;;;;;;5014945;28;20474;-80
2021/05/10 02:55:27;;;;;;;1.52;1.42;;;14.90;45.70;;;;;;5031239;28;20029;-78
2021/05/10 02:57:54;;;;;;;3.50;1.70;;;14.80;45.80;;;;;;5032605;28;20044;-76
2021/05/10 03:00:22;;;;;;;2.25;1.70;;;14.70;45.90;;;;;;5031029;28;20037;-76
2021/05/10 03:02:53;;;;;;;3.00;1.50;;;14.60;46.00;;;;;;5031292;28;20026;-77
2021/05/10 03:05:19;;;;;;;2.08;1.30;;;14.50;46.00;;;;;;5028557;28;20042;-77
2021/05/10 03:07:46;;;;;;;1.67;1.58;;;14.40;46.10;;;;;;5034803;28;20446;-76
2021/05/10 03:10:18;;;;;;;2.25;1.60;;;14.30;46.10;;;;;;5031644;28;20398;-76
2021/05/10 03:12:48;;;;;;;2.15;1.85;;;14.20;46.10;;;;;;5032034;28;20068;-77
2021/05/10 03:15:16;;;;;;;3.20;1.92;;;14.10;46.10;;;;;;5022930;28;20089;-78
2021/05/10 03:17:43;;;;;;;1.70;1.60;;;14.00;46.10;;;;;;5016680;28;20088;-78
2021/05/10 03:20:12;;;;;;;1.70;1.60;;;14.00;46.20;;;;;;5005696;28;20033;-78
2021/05/10 03:22:39;;;;;;;1.92;1.25;;;13.90;46.30;;;;;;5022248;28;20041;-76
2021/05/10 03:25:06;;;;;;;1.73;1.50;;;13.80;46.10;;;;;;5032950;28;20037;-77
2021/05/10 03:27:51;;;;;;;1.70;1.60;;;13.80;46.30;;;;;;5017831;28;20496;-78
2021/05/10 03:30:23;;;;;;;1.83;1.73;;;13.70;46.20;;;;;;5037090;28;20465;-78
2021/05/10 03:32:49;;;;;;;2.03;1.70;;;13.60;46.10;;;;;;5051438;28;20052;-77
2021/05/10 03:35:17;;;;;;;1.67;1.48;;;13.50;46.10;;;;;;5036190;28;20037;-77
2021/05/10 03:37:44;;;;;;;1.55;1.45;;;13.50;46.30;;;;;;5035908;28;20033;-77
2021/05/10 03:40:14;;;;;;;1.60;1.50;;;13.50;46.10;;;;;;5018121;28;20033;-75
2021/05/10 03:42:41;;;;;;;1.67;1.58;;;13.40;46.00;;;;;;5035735;28;20037;-77
2021/05/10 03:45:08;;;;;;;2.03;1.40;;;13.40;46.00;;;;;;5034403;28;20037;-79
2021/05/10 03:47:41;;;;;;;2.10;1.67;;;13.40;46.00;;;;;;5051246;28;20493;-76
2021/05/10 03:50:15;;;;;;;2.40;2.20;;;13.50;45.90;;;;;;5051035;28;20029;-77
2021/05/10 03:52:42;;;;;;;2.80;1.67;;;14.00;45.60;;;;;;5050736;28;20128;-76
2021/05/10 03:55:10;;;;;;;2.22;2.03;;;14.70;45.00;;;;;;5035359;28;20655;-77
2021/05/10 03:57:37;;;;;;;2.42;1.75;;;15.50;44.00;;;;;;5017894;28;20033;-77
2021/05/10 04:00:05;;;;;;;2.90;1.88;;;16.30;43.30;;;;;;5017378;28;20474;-77
2021/05/10 04:02:34;;;;;;;2.28;1.90;;;17.00;42.20;;;;;;5035016;28;20040;-75
2021/05/10 04:15:36;;;;;;;1.75;1.65;;;20.30;37.40;;;;;;5035329;28;20555;-79
2021/05/10 04:18:02;;;;;;;1.58;1.52;;;21.00;37.00;;;;;;5028302;28;20117;-78
2021/05/10 04:20:28;;;;;;;1.33;1.30;;;21.50;36.20;;;;;;5049487;28;20033;-80
2021/05/10 04:22:55;;;;;;;1.60;1.50;;;21.90;35.30;;;;;;5034486;28;20044;-77
2021/05/10 04:25:21;;;;;;;1.73;1.48;;;22.40;34.60;;;;;;5034793;28;20034;-74
2021/05/10 04:27:48;;;;;;;1.70;1.60;;;22.90;34.60;;;;;;5038015;28;20042;-73
2021/05/10 04:30:15;;;;;;;1.33;1.23;;;23.30;33.90;;;;;;5026237;28;20033;-73
2021/05/10 04:32:41;;;;;;;1.38;1.15;;;23.70;33.40;;;;;;5016811;28;20051;-74
2021/05/10 04:35:08;;;;;;;1.50;1.40;;;24.20;32.90;;;;;;5021086;28;20037;-72
2021/05/10 04:37:34;;;;;;;2.08;1.27;;;24.50;32.50;;;;;;5034666;28;20049;-73
2021/05/10 04:40:01;;;;;;;1.60;1.50;;;24.80;32.10;;;;;;5028543;28;20065;-73
2021/05/10 04:42:27;;;;;;;1.70;1.60;;;25.10;31.80;;;;;;5040196;28;20088;-72
2021/05/10 04:44:53;;;;;;;3.22;1.60;;;25.10;31.70;;;;;;5014580;28;20440;-73
2021/05/10 04:47:19;;;;;;;1.73;1.63;;;25.20;31.40;;;;;;5015385;28;20034;-73
2021/05/10 04:49:45;;;;;;;1.88;1.70;;;25.20;31.60;;;;;;5014398;28;20577;-72
2021/05/10 04:52:11;;;;;;;2.03;1.48;;;25.40;31.70;;;;;;5030015;28;20126;-73
2021/05/10 04:54:37;;;;;;;3.35;1.70;;;25.50;31.40;;;;;;5014448;28;20034;-75
2021/05/10 04:57:03;;;;;;;1.98;1.50;;;25.90;31.10;;;;;;4996933;28;20041;-72
2021/05/10 04:59:29;;;;;;;1.50;1.40;;;26.20;31.00;;;;;;5014506;28;20041;-73
2021/05/10 05:01:55;;;;;;;2.15;1.58;;;26.70;30.80;;;;;;4998826;28;20038;-74
2021/05/10 05:04:20;;;;;;;1.38;1.25;;;27.20;30.50;;;;;;5005093;28;20053;-72
2021/05/10 05:06:46;;;;;;;1.30;1.20;;;27.40;30.00;;;;;;5030355;28;20042;-73
2021/05/10 05:09:15;;;;;;;1.75;1.30;;;27.50;29.90;;;;;;5004090;28;20394;-73
2021/05/10 05:11:41;;;;;;;1.13;1.08;;;27.60;29.60;;;;;;5033958;28;20124;-74
2021/05/10 05:14:07;;;;;;;2.60;1.35;;;27.60;29.60;;;;;;5016466;28;20176;-70
2021/05/10 05:16:34;;;;;;;1.42;1.33;;;27.80;29.60;;;;;;5032365;28;20033;-75
2021/05/10 05:19:00;;;;;;;1.85;1.27;;;27.90;29.50;;;;;;4993549;28;20030;-71
2021/05/10 05:21:26;;;;;;;0.93;0.90;;;28.00;29.50;;;;;;5003059;28;20081;-71
2021/05/10 05:23:52;;;;;;;1.38;1.15;;;28.20;29.50;;;;;;5006096;28;20038;-71
2021/05/10 05:26:18;;;;;;;1.20;1.13;;;28.30;29.90;;;;;;4996617;28;20509;-77
2021/05/10 05:28:44;;;;;;;2.10;1.08;;;28.50;29.70;;;;;;4994894;28;20045;-74
2021/05/10 05:31:10;;;;;;;1.20;1.10;;;28.70;29.30;;;;;;4991198;28;20026;-79
2021/05/10 05:33:37;;;;;;;2.70;1.10;;;28.80;28.90;;;;;;5017711;28;20048;-76
2021/05/10 05:36:05;;;;;;;2.15;1.15;;;28.90;28.80;;;;;;5006878;28;20033;-78
2021/05/10 05:38:34;;;;;;;1.65;1.15;;;29.10;29.20;;;;;;5004077;28;20116;-80
2021/05/10 05:41:00;;;;;;;1.80;1.20;;;29.30;28.90;;;;;;5004731;28;20483;-83
2021/05/10 05:43:27;;;;;;;2.20;1.15;;;29.40;28.50;;;;;;5020118;28;20160;-82
2021/05/10 05:45:55;;;;;;;1.77;1.27;;;29.50;28.30;;;;;;5002629;28;20038;-80
2021/05/10 05:48:21;;;;;;;1.90;1.20;;;29.70;28.50;;;;;;5013780;28;20029;-82
2021/05/10 05:50:48;;;;;;;1.50;1.20;;;29.80;28.60;;;;;;5011781;28;20053;-80
2021/05/10 05:53:14;;;;;;;1.67;1.20;;;30.00;28.70;;;;;;5013866;28;20415;-80
2021/05/10 05:55:41;;;;;;;1.08;0.93;;;30.10;28.60;;;;;;4996521;28;20030;-81
2021/05/10 05:58:07;;;;;;;2.97;1.40;;;30.30;28.60;;;;;;5015179;28;20548;-80
2021/05/10 06:00:33;;;;;;;3.20;1.25;;;30.40;28.40;;;;;;5018361;28;20037;-81
2021/05/10 06:02:59;;;;;;;1.58;1.15;;;30.50;28.50;;;;;;5001723;28;20073;-81
2021/05/10 06:05:26;;;;;;;3.55;1.40;;;30.60;28.10;;;;;;5012944;28;20042;-73
2021/05/10 06:07:52;;;;;;;2.03;1.85;;;30.60;28.10;;;;;;5011123;28;20047;-68
2021/05/10 06:10:23;;;;;;;3.60;2.30;;;30.30;28.00;;;;;;5013031;28;20041;-69
2021/05/10 06:12:51;;;;;;;2.50;2.28;;;30.10;27.90;;;;;;4996444;28;20089;-81
2021/05/10 06:15:19;;;;;;;2.88;2.15;;;29.80;27.90;;;;;;5012221;28;20042;-73
2021/05/10 06:17:45;;;;;;;3.13;2.00;;;29.60;28.20;;;;;;5012053;28;20042;-74
2021/05/10 06:20:12;;;;;;;1.83;1.63;;;29.50;28.20;;;;;;5010272;28;20121;-67
2021/05/10 06:22:39;;;;;;;1.70;1.40;;;29.30;27.90;;;;;;5005458;28;20053;-73
2021/05/10 06:25:11;;;;;;;3.95;1.80;;;29.10;27.70;;;;;;5016419;28;20038;-73
2021/05/10 06:27:37;;;;;;;1.85;1.40;;;29.00;28.00;;;;;;4987831;28;20061;-72
2021/05/10 06:30:09;;;;;;;1.85;1.48;;;28.90;27.70;;;;;;5009351;28;20034;-70
2021/05/10 06:32:35;;;;;;;1.48;1.35;;;28.80;28.00;;;;;;4990806;28;20044;-70
2021/05/10 06:35:02;;;;;;;1.95;1.38;;;28.70;28.20;;;;;;5012026;28;20367;-75
2021/05/10 06:37:30;;;;;;;2.72;1.45;;;28.60;28.30;;;;;;5028048;28;20026;-73
2021/05/10 06:39:57;;;;;;;1.70;1.60;;;28.50;28.20;;;;;;5008899;28;20052;-73
2021/05/10 06:42:24;;;;;;;2.17;1.33;;;28.40;28.00;;;;;;5010283;28;20128;-71
2021/05/10 06:44:51;;;;;;;2.80;1.55;;;28.30;28.00;;;;;;5028309;28;20030;-74
2021/05/10 06:47:17;;;;;;;1.30;1.20;;;28.20;27.90;;;;;;5012614;28;20038;-70
2021/05/10 06:49:44;;;;;;;1.38;1.27;;;28.20;28.00;;;;;;5012486;28;20041;-70
2021/05/10 06:52:10;;;;;;;2.60;1.35;;;28.20;28.40;;;;;;5011421;28;20045;-71
2021/05/10 06:54:36;;;;;;;2.55;1.25;;;28.20;28.10;;;;;;5011492;28;20136;-71
2021/05/10 06:57:03;;;;;;;3.03;1.13;;;28.20;28.00;;;;;;5012670;28;20053;-79
2021/05/10 06:59:29;;;;;;;1.20;1.10;;;28.20;27.90;;;;;;5012871;28;20057;-70
2021/05/10 07:01:55;;;;;;;1.50;1.38;;;28.00;27.80;;;;;;4997699;28;20172;-71
2021/05/10 07:04:21;;;;;;;1.95;1.10;;;28.00;27.80;;;;;;5016270;28;20129;-74
2021/05/10 07:06:47;;;;;;;1.60;1.13;;;27.90;27.30;;;;;;5014237;28;20037;-73
2021/05/10 07:09:13;;;;;;;1.85;1.02;;;27.70;27.60;;;;;;5015432;28;20034;-75
2021/05/10 07:11:39;;;;;;;2.20;1.10;;;27.60;27.90;;;;;;5015519;28;20049;-71
2021/05/10 07:14:05;;;;;;;1.17;0.95;;;27.50;27.70;;;;;;5015717;28;20100;-70
2021/05/10 07:16:34;;;;;;;2.38;1.30;;;27.50;27.50;;;;;;5015164;28;20478;-72
2021/05/10 07:19:00;;;;;;;2.10;1.10;;;27.30;27.00;;;;;;5016373;28;20409;-71
2021/05/10 07:21:26;;;;;;;2.25;1.60;;;27.20;27.40;;;;;;5015663;28;20053;-72
2021/05/10 07:23:53;;;;;;;1.13;0.82;;;26.90;27.50;;;;;;5015397;28;20030;-73
2021/05/10 07:26:19;;;;;;;1.30;1.20;;;26.70;27.60;;;;;;5015151;28;20034;-70
2021/05/10 07:28:46;;;;;;;1.50;1.02;;;26.60;27.40;;;;;;5014932;28;20254;-72
2021/05/10 07:31:13;;;;;;;2.60;1.20;;;26.40;27.90;;;;;;5015718;28;20040;-71
2021/05/10 07:33:39;;;;;;;2.65;1.30;;;26.30;27.90;;;;;;5014563;28;20552;-70
2021/05/10 07:36:05;;;;;;;1.20;1.15;;;26.30;28.10;;;;;;5014815;28;20059;-72
2021/05/10 07:38:32;;;;;;;1.70;1.40;;;26.10;27.90;;;;;;5014246;28;20537;-71
2021/05/10 07:40:58;;;;;;;1.42;1.20;;;25.90;27.80;;;;;;5014253;28;20030;-70
2021/05/10 07:43:24;;;;;;;16.42;4.18;;;25.80;28.30;;;;;;5014484;28;20073;-75
2021/05/10 07:45:50;;;;;;;45.83;9.35;;;25.60;28.30;;;;;;5014840;28;20458;-72
2021/05/10 07:48:17;;;;;;;33.83;7.60;;;25.40;28.80;;;;;;5015487;28;20034;-74
2021/05/10 07:50:44;;;;;;;30.77;6.55;;;25.30;29.40;;;;;;5021710;28;20041;-72
2021/05/10 07:53:13;;;;;;;8.93;3.08;;;25.20;30.10;;;;;;5014309;28;20069;-69
2021/05/10 07:55:39;;;;;;;5.57;2.35;;;25.10;28.50;;;;;;5014625;28;20037;-71
2021/05/10 07:58:06;;;;;;;7.35;2.58;;;24.80;27.80;;;;;;5014276;28;20045;-72
2021/05/10 08:00:38;;;;;;;10.82;2.00;;;24.60;28.10;;;;;;5014172;28;20038;-76
2021/05/10 08:03:07;;;;;;;2.58;1.30;;;24.20;27.90;;;;;;5014631;28;20137;-75
2021/05/10 08:05:39;;;;;;;5.75;1.80;;;23.80;27.10;;;;;;5008694;28;20034;-77
2021/05/10 08:08:07;;;;;;;4.53;1.90;;;23.50;28.40;;;;;;5011947;28;20040;-75
2021/05/10 08:10:34;;;;;;;6.25;2.00;;;23.50;29.50;;;;;;5013747;28;20022;-75
2021/05/10 08:13:00;;;;;;;7.88;2.15;;;23.40;30.80;;;;;;5013660;28;20038;-78
2021/05/10 08:15:26;;;;;;;1.80;1.40;;;23.50;31.40;;;;;;5014966;28;20042;-70
2021/05/10 08:17:52;;;;;;;2.13;1.58;;;23.20;28.60;;;;;;5014012;28;20437;-72
2021/05/10 08:20:18;;;;;;;3.97;1.70;;;23.10;29.00;;;;;;5013894;28;20029;-73
2021/05/10 08:22:45;;;;;;;2.60;1.45;;;23.00;29.00;;;;;;5015231;28;20049;-72
2021/05/10 08:25:12;;;;;;;3.65;1.63;;;22.80;28.40;;;;;;5030312;28;20046;-74
2021/05/10 08:27:39;;;;;;;1.88;1.58;;;22.70;28.70;;;;;;5013670;28;20040;-74
2021/05/10 08:30:09;;;;;;;3.03;1.70;;;22.60;29.50;;;;;;5013857;28;20034;-76
2021/05/10 08:32:35;;;;;;;4.32;1.50;;;22.50;28.70;;;;;;5013212;28;20080;-73
2021/05/10 08:35:02;;;;;;;4.05;1.67;;;22.30;29.00;;;;;;5013824;28;20441;-73
2021/05/10 08:37:29;;;;;;;4.60;1.63;;;22.20;29.20;;;;;;5014663;28;20116;-74
2021/05/10 08:39:56;;;;;;;1.40;1.25;;;22.10;29.50;;;;;;5029927;28;20041;-77
2021/05/10 08:42:22;;;;;;;1.55;1.23;;;22.00;28.60;;;;;;5014657;28;20129;-73
2021/05/10 08:44:49;;;;;;;1.95;1.35;;;21.90;29.30;;;;;;5029264;28;20169;-76
2021/05/10 08:47:18;;;;;;;4.53;1.63;;;21.80;30.00;;;;;;5013464;28;20046;-78
2021/05/10 08:49:44;;;;;;;2.88;1.45;;;21.80;30.20;;;;;;5012463;28;20079;-75
2021/05/10 08:52:10;;;;;;;1.52;1.42;;;21.80;30.90;;;;;;5009885;28;20521;-74
2021/05/10 08:54:38;;;;;;;3.80;1.63;;;21.80;31.70;;;;;;5002945;28;20048;-76
2021/05/10 08:57:05;;;;;;;2.63;1.40;;;21.80;31.50;;;;;;5023482;28;20033;-72
2021/05/10 08:59:31;;;;;;;6.07;1.60;;;21.80;31.60;;;;;;5012578;28;20397;-74
2021/05/10 09:02:01;;;;;;;2.38;1.30;;;21.80;31.90;;;;;;5029230;28;20038;-73
2021/05/10 09:04:35;;;;;;;2.20;1.40;;;21.70;31.70;;;;;;5013177;28;20044;-73
2021/05/10 09:07:23;;;;;;;4.20;1.45;;;21.70;31.10;;;;;;5013103;28;20057;-72
2021/05/10 09:09:59;;;;;;;2.58;1.25;;;21.40;28.90;;;;;;5012074;28;20497;-73
2021/05/10 09:12:45;;;;;;;1.50;1.40;;;21.00;28.70;;;;;;5013986;28;20572;-75
2021/05/10 09:15:45;;;;;;;3.45;1.38;;;20.60;28.60;;;;;;5014300;28;20042;-75
2021/05/10 09:18:11;;;;;;;1.70;1.33;;;20.50;30.60;;;;;;4974951;28;20046;-75
2021/05/10 09:20:42;;;;;;;1.70;1.17;;;20.50;31.30;;;;;;5014278;28;20044;-73
2021/05/10 09:23:09;;;;;;;1.65;1.10;;;20.60;32.20;;;;;;5012753;28;20145;-76
2021/05/10 09:25:42;;;;;;;2.40;1.30;;;20.70;32.50;;;;;;5013841;28;20095;-74
2021/05/10 09:28:25;;;;;;;2.42;1.50;;;20.70;32.70;;;;;;5014181;28;20038;-77
2021/05/10 09:30:58;;;;;;;1.65;1.40;;;20.80;32.60;;;;;;5013781;28;20032;-73
2021/05/10 09:33:28;;;;;;;2.92;1.40;;;20.80;33.00;;;;;;5013886;28;20505;-77
2021/05/10 09:36:06;;;;;;;1.27;1.17;;;20.80;33.40;;;;;;5030055;28;20030;-76
2021/05/10 09:38:39;;;;;;;1.42;1.33;;;20.90;33.80;;;;;;5017636;28;20120;-77
2021/05/10 09:41:09;;;;;;;1.48;1.38;;;20.90;34.00;;;;;;5012610;28;20034;-75
2021/05/10 09:43:39;;;;;;;3.78;1.50;;;20.70;30.50;;;;;;5045493;28;20041;-76
2021/05/10 09:46:12;;;;;;;2.65;1.65;;;20.20;29.20;;;;;;5013802;28;20053;-76
2021/05/10 09:48:40;;;;;;;3.03;1.70;;;19.90;29.70;;;;;;5013637;28;20034;-74
2021/05/10 09:51:14;;;;;;;2.50;1.40;;;19.80;30.70;;;;;;5012275;28;20430;-74
2021/05/10 09:53:50;;;;;;;2.30;1.30;;;19.90;31.70;;;;;;5013512;28;20044;-72
2021/05/10 09:56:26;;;;;;;1.60;1.50;;;20.00;32.30;;;;;;5028885;28;20076;-74
2021/05/10 09:59:01;;;;;;;;;;;20.00;32.70;;;;;;5019270;28;20040;-75
2021/05/10 10:01:45;;;;;;;1.40;1.30;;;20.10;33.20;;;;;;5019216;28;19913;-75
2021/05/10 10:04:19;;;;;;;2.58;1.40;;;20.10;33.00;;;;;;4995513;28;20520;-76
2021/05/10 10:06:46;;;;;;;1.40;1.30;;;20.00;32.10;;;;;;5012413;28;20130;-77
2021/05/10 10:09:13;;;;;;;1.63;1.52;;;19.90;32.40;;;;;;5028361;28;20494;-76
2021/05/10 10:11:40;;;;;;;1.40;1.30;;;20.00;32.60;;;;;;5013335;28;20160;-75
2021/05/10 10:14:07;;;;;;;1.42;1.20;;;20.00;33.10;;;;;;5012762;28;20053;-74
2021/05/10 10:16:34;;;;;;;3.53;1.63;;;20.10;33.50;;;;;;4995473;28;20056;-75
2021/05/10 10:19:04;;;;;;;1.95;1.20;;;20.00;33.30;;;;;;5011620;28;20037;-74
2021/05/10 10:21:31;;;;;;;3.42;1.30;;;20.00;33.10;;;;;;4995512;28;20070;-74
2021/05/10 10:24:02;;;;;;;1.63;1.40;;;19.90;31.50;;;;;;4995632;28;20062;-77
2021/05/10 10:26:29;;;;;;;1.77;1.40;;;19.80;31.70;;;;;;4995290;28;20414;-73
2021/05/10 10:28:56;;;;;;;1.17;1.05;;;19.80;32.30;;;;;;5027914;28;20046;-76
2021/05/10 10:31:33;;;;;;;1.40;1.30;;;19.80;32.00;;;;;;4995585;28;20509;-73
2021/05/10 10:34:15;;;;;;;3.40;1.83;;;19.70;32.30;;;;;;5011297;28;20482;-75
2021/05/10 10:36:55;;;;;;;1.92;1.55;;;19.60;31.00;;;;;;5039443;28;20026;-76
2021/05/10 10:39:27;;;;;;;2.65;1.70;;;19.50;31.20;;;;;;5011457;28;20061;-74
2021/05/10 10:41:54;;;;;;;3.15;1.70;;;19.40;31.30;;;;;;5028180;28;20450;-75
2021/05/10 10:44:28;;;;;;;1.70;1.60;;;19.20;30.90;;;;;;5027671;28;20076;-73
2021/05/10 10:46:55;;;;;;;3.63;1.80;;;19.10;30.80;;;;;;5013067;28;20038;-73
2021/05/10 10:49:31;;;;;;;2.13;1.75;;;18.90;31.10;;;;;;5028072;28;20038;-73
2021/05/10 10:51:58;;;;;;;3.08;1.70;;;18.80;31.10;;;;;;5012499;28;20042;-73
2021/05/10 10:54:27;;;;;;;1.70;1.60;;;18.80;31.50;;;;;;4995219;28;20121;-78
2021/05/10 10:57:00;;;;;;;2.20;1.40;;;18.80;31.80;;;;;;5011496;28;20099;-77
2021/05/10 10:59:30;;;;;;;1.75;1.65;;;18.90;32.70;;;;;;4998990;28;20037;-73
2021/05/10 11:01:57;;;;;;;1.40;1.30;;;19.00;33.20;;;;;;4985010;28;20046;-73
2021/05/10 11:04:28;;;;;;;1.73;1.55;;;19.10;33.50;;;;;;5004015;28;20038;-74
2021/05/10 11:06:54;;;;;;;1.80;1.70;;;19.20;33.50;;;;;;5011544;28;20079;-72
2021/05/10 11:09:48;;;;;;;2.30;1.95;;;19.10;32.30;;;;;;5032985;28;20042;-72
2021/05/10 11:12:51;;;;;;;2.72;1.83;;;19.10;32.50;;;;;;5004045;28;20042;-70
2021/05/10 11:15:35;;;;;;;2.55;2.08;;;19.20;32.40;;;;;;4981045;28;20545;-77
2021/05/10 11:18:06;;;;;;;1.90;1.70;;;19.10;32.10;;;;;;5011699;28;20056;-72
2021/05/10 11:20:43;;;;;;;1.95;1.63;;;19.00;32.40;;;;;;5011107;28;20846;-78
2021/05/10 11:23:24;;;;;;;2.65;1.70;;;19.00;32.10;;;;;;5043819;28;20101;-77
2021/05/10 11:25:52;;;;;;;2.28;1.70;;;19.00;32.30;;;;;;5012772;28;20096;-77
2021/05/10 11:28:27;;;;;;;1.73;1.55;;;19.00;32.80;;;;;;5028191;28;20558;-73
2021/05/10 11:30:56;;;;;;;;;;;19.00;33.40;;;;;;5028422;28;20065;-77
2021/05/10 11:33:53;;;;;;;3.03;1.80;;;19.00;33.40;;;;;;5012467;28;20012;-75
2021/05/10 11:36:20;;;;;;;2.88;1.85;;;19.00;33.50;;;;;;5028306;28;20128;-74
2021/05/10 11:38:57;;;;;;;2.92;1.77;;;19.00;33.30;;;;;;5023318;28;20091;-76
2021/05/10 11:41:30;;;;;;;4.22;1.83;;;19.00;33.10;;;;;;5032427;28;20097;-76
2021/05/10 11:43:58;;;;;;;2.63;1.67;;;18.90;32.60;;;;;;5031546;28;20049;-73
2021/05/10 11:46:38;;;;;;;2.17;1.77;;;18.80;32.30;;;;;;5032278;28;20169;-72
2021/05/10 11:49:07;;;;;;;2.60;1.60;;;18.70;32.10;;;;;;5033364;28;20061;-74
2021/05/10 11:51:38;;;;;;;2.28;1.48;;;18.60;31.50;;;;;;5018085;28;20478;-78
2021/05/10 11:54:07;;;;;;;2.67;1.50;;;18.50;31.20;;;;;;5035582;28;20095;-74
2021/05/10 11:56:41;;;;;;;1.70;1.58;;;18.50;31.70;;;;;;5035230;28;20033;-75
2021/05/10 12:01:53;;;;;;;3.78;1.30;;;18.40;31.10;;;;;;5033280;28;20030;-77
2021/05/10 12:04:20;;;;;;;2.47;1.70;;;18.40;31.10;;;;;;5030476;28;20077;-77
2021/05/10 12:06:47;;;;;;;1.38;1.25;;;18.40;31.40;;;;;;4997617;28;20316;-75
2021/05/10 12:09:35;;;;;;;3.47;1.50;;;18.40;30.70;;;;;;5036636;28;20034;-78
2021/05/10 12:12:19;;;;;;;1.38;1.25;;;18.40;30.80;;;;;;4990762;28;20033;-79
2021/05/10 12:14:54;;;;;;;1.55;1.45;;;18.30;30.80;;;;;;4997873;28;20123;-77
2021/05/10 12:17:26;;;;;;;2.50;1.70;;;18.30;30.80;;;;;;5015264;28;20033;-78
2021/05/10 12:20:12;;;;;;;1.40;1.30;;;18.40;31.00;;;;;;5015239;28;20041;-79
2021/05/10 12:22:38;;;;;;;;;;;18.30;31.00;;;;;;5030630;28;20096;-78
2021/05/10 12:25:27;;;;;;;3.38;1.60;;;18.40;31.00;;;;;;4997531;28;19967;-77
2021/05/10 12:28:11;;;;;;;1.60;1.30;;;18.30;30.60;;;;;;5014602;28;20106;-80
2021/05/10 12:30:46;;;;;;;2.60;1.30;;;18.20;30.30;;;;;;5021940;28;20041;-78
2021/05/10 12:33:19;;;;;;;2.33;1.30;;;18.20;30.50;;;;;;5033437;28;20041;-79
2021/05/10 12:35:47;;;;;;;1.60;1.35;;;18.30;30.70;;;;;;5033691;28;20520;-80
2021/05/10 12:38:36;;;;;;;1.92;1.35;;;18.30;30.40;;;;;;5049422;28;20080;-77
2021/05/10 12:41:04;;;;;;;2.70;1.73;;;18.20;30.10;;;;;;5017124;28;20071;-78
2021/05/10 12:43:43;;;;;;;1.88;1.00;;;18.20;29.90;;;;;;5034771;28;20444;-78
2021/05/10 12:46:09;;;;;;;1.63;1.10;;;18.20;30.00;;;;;;5050238;28;20095;-80
2021/05/10 12:48:39;;;;;;;1.40;1.30;;;18.20;30.20;;;;;;5033963;28;20572;-77
2021/05/10 12:51:15;;;;;;;1.95;1.42;;;18.30;30.50;;;;;;5034682;28;20037;-77
2021/05/10 12:54:04;;;;;;;3.05;1.20;;;18.30;30.40;;;;;;5033629;28;20037;-80
2021/05/10 12:56:42;;;;;;;2.90;1.75;;;18.30;30.50;;;;;;5034324;28;20167;-79
2021/05/10 12:59:10;;;;;;;1.88;1.38;;;18.30;30.30;;;;;;5016110;28;20033;-81
2021/05/10 13:01:37;;;;;;;2.28;1.35;;;18.30;30.00;;;;;;5017431;28;20048;-76
2021/05/10 13:04:06;;;;;;;1.90;1.40;;;18.20;30.00;;;;;;5027761;28;20057;-76
2021/05/10 13:06:38;;;;;;;1.45;1.35;;;18.20;30.00;;;;;;5024152;28;20029;-70
2021/05/10 13:09:09;;;;;;;1.55;1.08;;;18.10;29.80;;;;;;5016530;28;20401;-72
2021/05/10 13:11:53;;;;;;;4.07;1.50;;;18.10;29.80;;;;;;4985053;28;20038;-73